world map with FBFT marked

FBFT - Airport

This information may not be accurate or current and is not valid for navigation or flight planning. No warranty of fitness for any purpose is made or implied.

flag of Botswana

Donate via PayPal

Additional information is available on the NEW Great Circle Mapper

Location
City:  Francistown, North-East, Botswana
Name:Francistown International Airport
ICAO / IATA:FBFT / FRW

Details
Type:Airport (Aerodrome, Airfield)
Use:Public/Civil
Latitude:21°09'35"S (-21.159596)
Longitude:27°28'28"E (27.474525)
Datum:WGS 1984
Elevation:3283 ft (1001 m)
Runways:2
Longest:7218 × 98 ft (2200 × 30 m)

Time
Timezone:UTC+2 (DST+4)
Local Time:

Weather
METAR:FBFT  161900Z 13004KT CAVOK 26/02 Q1019
TAF:FBFT  (expired)

Related Locations
Nearby:
Farthest:ITO: 12251 mi / 19717 km
Hilo [Hilo Intl], Hawaii, HI, US

Find:

   beyond  
but within

Other Information
Maps:
Sources:

  


 


Great Circle Mapper   Great Circle Mapper
Great Circle Mapper FAQ   Great Circle Mapper FAQ
  Karl's Home Page
KLSē   KLSē Home
   GC on Facebook
Airlines of the World   Airlines of the World
Donate via PayPal


Copyright © 2004-2018, Karl L. Swartz. All rights reserved.
All trademarks mentioned herein belong to their respective owners.

Please see credits for attribution and copyright information.

Karl Swartz <karl@kls2.com>
  Powered by FreeBSD
Valid HTML 4.01!
Labeled with ICRA
hCard Microformat
Geo Microformat